Quick Links (Output Below):   Max & Min Temps   /   Climate Reports   /   Zone Forecasts
River Forecasts   /   Forestry Forecasts   /   Aviation Forecasts   /   Radars   /   Features

Terminal Aerodrome Forecast (Mountain Home)

Pick a Site:
Arkadelphia | El Dorado | Fayetteville | Fort Smith | Harrison | Highfill | Hot Springs | Jonesboro
Little Rock | Monticello | Mountain Home | Pine Bluff | Texarkana
 Forecast 

KBPK 301120Z 3012/3112 00000KT P6SM SKC
     FM301400 21006KT P6SM VCSH BKN060 BKN250
     FM310000 34009G18KT P6SM FEW060=


 Latest METARs (Observations) 
How to Decode METARs
16Z KBPK 301553Z AUTO VRB04KT 10SM CLR 15/05 A3012 RMK AO2 SLP198
         T01500050
         
15Z KBPK 301453Z AUTO 15005KT 10SM CLR 11/04 A3013 RMK AO2 SLP204
         T01060039 56001
         
14Z KBPK 301353Z AUTO 14004KT 10SM CLR 08/05 A3014 RMK AO2 SLP204
         T00830050
         
13Z KBPK 301253Z AUTO 13004KT 10SM CLR 05/04 A3013 RMK AO2 SLP203
         T00500039
         
12Z KBPK 301153Z AUTO 00000KT 10SM CLR 03/03 A3014 RMK AO2 SLP205
         T00330028 10072 20033 58002
         
11Z KBPK 301053Z AUTO 00000KT 10SM CLR 04/03 A3014 RMK AO2 SLP204
         T00440033
         
10Z KBPK 300953Z AUTO 00000KT 10SM CLR 04/03 A3014 RMK AO2 SLP206
         T00440033
         
09Z KBPK 300853Z AUTO 00000KT 10SM CLR 06/04 A3014 RMK AO2 SLP205
         T00560039 58003
         
08Z KBPK 300753Z AUTO 00000KT 10SM CLR 06/03 A3014 RMK AO2 SLP206
         T00610033
         
07Z KBPK 300653Z AUTO 00000KT 10SM CLR 06/03 A3015 RMK AO2 SLP209
         T00610028
         
***** Today's Observations (Above) *****


Back to Main Page
http://www.srh.noaa.gov/lzk/qfcst.php

USA.gov is the U.S. government's official web portal to all federal, state and local government web resources and services.